Aviation Digital Data Service (ADDS)

Output produced by METARs form (0655 UTC 20 March 2019)
found at http://www.aviationweather.gov/metar/data/
 
METAR text: NZCH 200630Z AUTO 06008KT 9999 FEW013/// 17/14 Q1026 BECMG BKN014
Conditions at: NZCH (CHRISTCHURCH INT, NZ) observed 0630 UTC 20 March 2019
Temperature: 17.0°C (63°F)
Dewpoint: 14.0°C (57°F) [RH = 82%]
Pressure (altimeter): 30.30 inches Hg (1026.0 mb)
Winds: from the ENE (60 degrees) at 9 MPH (8 knots; 4.1 m/s)
Visibility: 6 or more miles (10+ km)
Ceiling: at least 12,000 feet AGL
Clouds: few clouds at 1300 feet AGL
Weather: no significant weather observed at this time

METAR text: NZCH 200600Z AUTO 06011KT 9999 BKN014/// 17/14 Q1026 TEMPO SCT014
Conditions at: NZCH (CHRISTCHURCH INT, NZ) observed 0600 UTC 20 March 2019
Temperature: 17.0°C (63°F)
Dewpoint: 14.0°C (57°F) [RH = 82%]
Pressure (altimeter): 30.30 inches Hg (1026.0 mb)
Winds: from the ENE (60 degrees) at 13 MPH (11 knots; 5.7 m/s)
Visibility: 6 or more miles (10+ km)
Ceiling: 1400 feet AGL
Clouds: broken clouds at 1400 feet AGL
Weather: no significant weather observed at this time

METAR text: NZCH 200530Z AUTO 07010KT 9999 FEW014/// 18/15 Q1026 BECMG BKN014
Conditions at: NZCH (CHRISTCHURCH INT, NZ) observed 0530 UTC 20 March 2019
Temperature: 18.0°C (64°F)
Dewpoint: 15.0°C (59°F) [RH = 83%]
Pressure (altimeter): 30.30 inches Hg (1026.0 mb)
Winds: from the ENE (70 degrees) at 12 MPH (10 knots; 5.1 m/s)
Visibility: 6 or more miles (10+ km)
Ceiling: at least 12,000 feet AGL
Clouds: few clouds at 1400 feet AGL
Weather: no significant weather observed at this time

METAR text: NZCH 200500Z AUTO 07011KT 040V110 9999 FEW017/// 18/14 Q1026 NOSIG
Conditions at: NZCH (CHRISTCHURCH INT, NZ) observed 0500 UTC 20 March 2019
Temperature: 18.0°C (64°F)
Dewpoint: 14.0°C (57°F) [RH = 77%]
Pressure (altimeter): 30.30 inches Hg (1026.0 mb)
Winds: from the ENE (70 degrees) at 13 MPH (11 knots; 5.7 m/s)
Visibility: 6 or more miles (10+ km)
Ceiling: at least 12,000 feet AGL
Clouds: few clouds at 1700 feet AGL
Weather: no significant weather observed at this time

METAR text: NZCH 200430Z AUTO 06010KT 9999 FEW017/// BKN028/// 19/14 Q1026 NOSIG
Conditions at: NZCH (CHRISTCHURCH INT, NZ) observed 0430 UTC 20 March 2019
Temperature: 19.0°C (66°F)
Dewpoint: 14.0°C (57°F) [RH = 73%]
Pressure (altimeter): 30.30 inches Hg (1026.0 mb)
Winds: from the ENE (60 degrees) at 12 MPH (10 knots; 5.1 m/s)
Visibility: 6 or more miles (10+ km)
Ceiling: 2800 feet AGL
Clouds: few clouds at 1700 feet AGL
broken clouds at 2800 feet AGL
Weather: no significant weather observed at this time

METAR text: NZCH 200400Z AUTO 06009KT 9999 FEW020/// OVC028/// 19/14 Q1026 NOSIG
Conditions at: NZCH (CHRISTCHURCH INT, NZ) observed 0400 UTC 20 March 2019
Temperature: 19.0°C (66°F)
Dewpoint: 14.0°C (57°F) [RH = 73%]
Pressure (altimeter): 30.30 inches Hg (1026.0 mb)
Winds: from the ENE (60 degrees) at 10 MPH (9 knots; 4.6 m/s)
Visibility: 6 or more miles (10+ km)
Ceiling: 2800 feet AGL
Clouds: few clouds at 2000 feet AGL
overcast cloud deck at 2800 feet AGL
Weather: no significant weather observed at this time

METAR text: NZCH 200330Z AUTO 06010KT 020V080 9999 SCT021/// BKN027/// 19/14 Q1026 NOSIG
Conditions at: NZCH (CHRISTCHURCH INT, NZ) observed 0330 UTC 20 March 2019
Temperature: 19.0°C (66°F)
Dewpoint: 14.0°C (57°F) [RH = 73%]
Pressure (altimeter): 30.30 inches Hg (1026.0 mb)
Winds: from the ENE (60 degrees) at 12 MPH (10 knots; 5.1 m/s)
Visibility: 6 or more miles (10+ km)
Ceiling: 2700 feet AGL
Clouds: scattered clouds at 2100 feet AGL
broken clouds at 2700 feet AGL
Weather: no significant weather observed at this time

METAR text: NZCH 200300Z AUTO 07011KT 030V100 9999 BKN023/// OVC029/// 20/14 Q1026 NOSIG
Conditions at: NZCH (CHRISTCHURCH INT, NZ) observed 0300 UTC 20 March 2019
Temperature: 20.0°C (68°F)
Dewpoint: 14.0°C (57°F) [RH = 68%]
Pressure (altimeter): 30.30 inches Hg (1026.0 mb)
Winds: from the ENE (70 degrees) at 13 MPH (11 knots; 5.7 m/s)
Visibility: 6 or more miles (10+ km)
Ceiling: 2300 feet AGL
Clouds: broken clouds at 2300 feet AGL
overcast cloud deck at 2900 feet AGL
Weather: no significant weather observed at this time

METAR text: NZCH 200230Z AUTO 08008KT 050V110 9999 OVC026/// 20/14 Q1026 NOSIG
Conditions at: NZCH (CHRISTCHURCH INT, NZ) observed 0230 UTC 20 March 2019
Temperature: 20.0°C (68°F)
Dewpoint: 14.0°C (57°F) [RH = 68%]
Pressure (altimeter): 30.30 inches Hg (1026.0 mb)
Winds: from the E (80 degrees) at 9 MPH (8 knots; 4.1 m/s)
Visibility: 6 or more miles (10+ km)
Ceiling: 2600 feet AGL
Clouds: overcast cloud deck at 2600 feet AGL
Weather: no significant weather observed at this time

METAR text: NZCH 200200Z AUTO 07008KT 030V100 9999 OVC025/// 20/14 Q1026 NOSIG
Conditions at: NZCH (CHRISTCHURCH INT, NZ) observed 0200 UTC 20 March 2019
Temperature: 20.0°C (68°F)
Dewpoint: 14.0°C (57°F) [RH = 68%]
Pressure (altimeter): 30.30 inches Hg (1026.0 mb)
Winds: from the ENE (70 degrees) at 9 MPH (8 knots; 4.1 m/s)
Visibility: 6 or more miles (10+ km)
Ceiling: 2500 feet AGL
Clouds: overcast cloud deck at 2500 feet AGL
Weather: no significant weather observed at this time

METAR text: NZCH 200130Z AUTO 07008KT 050V110 9999 SCT022/// BKN028/// 19/14 Q1026 NOSIG
Conditions at: NZCH (CHRISTCHURCH INT, NZ) observed 0130 UTC 20 March 2019
Temperature: 19.0°C (66°F)
Dewpoint: 14.0°C (57°F) [RH = 73%]
Pressure (altimeter): 30.30 inches Hg (1026.0 mb)
Winds: from the ENE (70 degrees) at 9 MPH (8 knots; 4.1 m/s)
Visibility: 6 or more miles (10+ km)
Ceiling: 2800 feet AGL
Clouds: scattered clouds at 2200 feet AGL
broken clouds at 2800 feet AGL
Weather: no significant weather observed at this time

METAR text: NZCH 200100Z AUTO 08008KT 9999 FEW018/// OVC026/// 19/14 Q1027 NOSIG
Conditions at: NZCH (CHRISTCHURCH INT, NZ) observed 0100 UTC 20 March 2019
Temperature: 19.0°C (66°F)
Dewpoint: 14.0°C (57°F) [RH = 73%]
Pressure (altimeter): 30.32 inches Hg (1027.0 mb)
Winds: from the E (80 degrees) at 9 MPH (8 knots; 4.1 m/s)
Visibility: 6 or more miles (10+ km)
Ceiling: 2600 feet AGL
Clouds: few clouds at 1800 feet AGL
overcast cloud deck at 2600 feet AGL
Weather: no significant weather observed at this time

METAR text: NZCH 200030Z AUTO 06008KT 040V110 9999 FEW018/// OVC025/// 19/14 Q1027 NOSIG
Conditions at: NZCH (CHRISTCHURCH INT, NZ) observed 0030 UTC 20 March 2019
Temperature: 19.0°C (66°F)
Dewpoint: 14.0°C (57°F) [RH = 73%]
Pressure (altimeter): 30.32 inches Hg (1027.0 mb)
Winds: from the ENE (60 degrees) at 9 MPH (8 knots; 4.1 m/s)
Visibility: 6 or more miles (10+ km)
Ceiling: 2500 feet AGL
Clouds: few clouds at 1800 feet AGL
overcast cloud deck at 2500 feet AGL
Weather: no significant weather observed at this time

METAR text: NZCH 200000Z AUTO 06009KT 9999 FEW018/// OVC026/// 19/14 Q1027 NOSIG
Conditions at: NZCH (CHRISTCHURCH INT, NZ) observed 0000 UTC 20 March 2019
Temperature: 19.0°C (66°F)
Dewpoint: 14.0°C (57°F) [RH = 73%]
Pressure (altimeter): 30.32 inches Hg (1027.0 mb)
Winds: from the ENE (60 degrees) at 10 MPH (9 knots; 4.6 m/s)
Visibility: 6 or more miles (10+ km)
Ceiling: 2600 feet AGL
Clouds: few clouds at 1800 feet AGL
overcast cloud deck at 2600 feet AGL
Weather: no significant weather observed at this time

METAR text: NZCH 192330Z AUTO 06008KT 9999 BKN020/// OVC025/// 19/14 Q1027 NOSIG
Conditions at: NZCH (CHRISTCHURCH INT, NZ) observed 2330 UTC 19 March 2019
Temperature: 19.0°C (66°F)
Dewpoint: 14.0°C (57°F) [RH = 73%]
Pressure (altimeter): 30.32 inches Hg (1027.0 mb)
Winds: from the ENE (60 degrees) at 9 MPH (8 knots; 4.1 m/s)
Visibility: 6 or more miles (10+ km)
Ceiling: 2000 feet AGL
Clouds: broken clouds at 2000 feet AGL
overcast cloud deck at 2500 feet AGL
Weather: no significant weather observed at this time

METAR text: NZCH 192300Z AUTO 06008KT 9999 BKN018/// OVC024/// 18/14 Q1027 NOSIG
Conditions at: NZCH (CHRISTCHURCH INT, NZ) observed 2300 UTC 19 March 2019
Temperature: 18.0°C (64°F)
Dewpoint: 14.0°C (57°F) [RH = 77%]
Pressure (altimeter): 30.32 inches Hg (1027.0 mb)
Winds: from the ENE (60 degrees) at 9 MPH (8 knots; 4.1 m/s)
Visibility: 6 or more miles (10+ km)
Ceiling: 1800 feet AGL
Clouds: broken clouds at 1800 feet AGL
overcast cloud deck at 2400 feet AGL
Weather: no significant weather observed at this time

METAR text: NZCH 192230Z AUTO 04007KT 9999 SCT017/// OVC023/// 18/14 Q1027 NOSIG
Conditions at: NZCH (CHRISTCHURCH INT, NZ) observed 2230 UTC 19 March 2019
Temperature: 18.0°C (64°F)
Dewpoint: 14.0°C (57°F) [RH = 77%]
Pressure (altimeter): 30.32 inches Hg (1027.0 mb)
Winds: from the NE (40 degrees) at 8 MPH (7 knots; 3.6 m/s)
Visibility: 6 or more miles (10+ km)
Ceiling: 2300 feet AGL
Clouds: scattered clouds at 1700 feet AGL
overcast cloud deck at 2300 feet AGL
Weather: no significant weather observed at this time

METAR text: NZCH 192200Z AUTO 01006KT 9999 FEW014/// BKN021/// OVC026/// 18/15 Q1027 NOSIG
Conditions at: NZCH (CHRISTCHURCH INT, NZ) observed 2200 UTC 19 March 2019
Temperature: 18.0°C (64°F)
Dewpoint: 15.0°C (59°F) [RH = 83%]
Pressure (altimeter): 30.32 inches Hg (1027.0 mb)
Winds: from the N (10 degrees) at 7 MPH (6 knots; 3.1 m/s)
Visibility: 6 or more miles (10+ km)
Ceiling: 2100 feet AGL
Clouds: few clouds at 1400 feet AGL
broken clouds at 2100 feet AGL
overcast cloud deck at 2600 feet AGL
Weather: no significant weather observed at this time

METAR text: NZCH 192130Z AUTO 04005KT 350V070 9999 FEW012/// BKN019/// 17/15 Q1027 NOSIG
Conditions at: NZCH (CHRISTCHURCH INT, NZ) observed 2130 UTC 19 March 2019
Temperature: 17.0°C (63°F)
Dewpoint: 15.0°C (59°F) [RH = 88%]
Pressure (altimeter): 30.32 inches Hg (1027.0 mb)
Winds: from the NE (40 degrees) at 6 MPH (5 knots; 2.6 m/s)
Visibility: 6 or more miles (10+ km)
Ceiling: 1900 feet AGL
Clouds: few clouds at 1200 feet AGL
broken clouds at 1900 feet AGL
Weather: no significant weather observed at this time

METAR text: NZCH 192100Z AUTO 07005KT 030V100 9999 FEW012/// BKN026/// 17/15 Q1027 NOSIG
Conditions at: NZCH (CHRISTCHURCH INT, NZ) observed 2100 UTC 19 March 2019
Temperature: 17.0°C (63°F)
Dewpoint: 15.0°C (59°F) [RH = 88%]
Pressure (altimeter): 30.32 inches Hg (1027.0 mb)
Winds: from the ENE (70 degrees) at 6 MPH (5 knots; 2.6 m/s)
Visibility: 6 or more miles (10+ km)
Ceiling: 2600 feet AGL
Clouds: few clouds at 1200 feet AGL
broken clouds at 2600 feet AGL
Weather: no significant weather observed at this time

METAR text: NZCH 192030Z AUTO 07005KT 9999 BKN028/// 17/15 Q1026 NOSIG
Conditions at: NZCH (CHRISTCHURCH INT, NZ) observed 2030 UTC 19 March 2019
Temperature: 17.0°C (63°F)
Dewpoint: 15.0°C (59°F) [RH = 88%]
Pressure (altimeter): 30.30 inches Hg (1026.0 mb)
Winds: from the ENE (70 degrees) at 6 MPH (5 knots; 2.6 m/s)
Visibility: 6 or more miles (10+ km)
Ceiling: 2800 feet AGL
Clouds: broken clouds at 2800 feet AGL
Weather: no significant weather observed at this time

METAR text: NZCH 192000Z AUTO 07006KT 9999 SCT014/// BKN027/// 16/15 Q1026 NOSIG
Conditions at: NZCH (CHRISTCHURCH INT, NZ) observed 2000 UTC 19 March 2019
Temperature: 16.0°C (61°F)
Dewpoint: 15.0°C (59°F) [RH = 94%]
Pressure (altimeter): 30.30 inches Hg (1026.0 mb)
Winds: from the ENE (70 degrees) at 7 MPH (6 knots; 3.1 m/s)
Visibility: 6 or more miles (10+ km)
Ceiling: 2700 feet AGL
Clouds: scattered clouds at 1400 feet AGL
broken clouds at 2700 feet AGL
Weather: no significant weather observed at this time

METAR text: NZCH 191930Z AUTO 07004KT 040V100 9999 OVC026/// 16/15 Q1026 NOSIG
Conditions at: NZCH (CHRISTCHURCH INT, NZ) observed 1930 UTC 19 March 2019
Temperature: 16.0°C (61°F)
Dewpoint: 15.0°C (59°F) [RH = 94%]
Pressure (altimeter): 30.30 inches Hg (1026.0 mb)
Winds: from the ENE (70 degrees) at 5 MPH (4 knots; 2.1 m/s)
Visibility: 6 or more miles (10+ km)
Ceiling: 2600 feet AGL
Clouds: overcast cloud deck at 2600 feet AGL
Weather: no significant weather observed at this time

METAR text: NZCH 191900Z AUTO 07005KT 9999 OVC026/// 16/15 Q1026 TEMPO BKN008
Conditions at: NZCH (CHRISTCHURCH INT, NZ) observed 1900 UTC 19 March 2019
Temperature: 16.0°C (61°F)
Dewpoint: 15.0°C (59°F) [RH = 94%]
Pressure (altimeter): 30.30 inches Hg (1026.0 mb)
Winds: from the ENE (70 degrees) at 6 MPH (5 knots; 2.6 m/s)
Visibility: 6 or more miles (10+ km)
Ceiling: 2600 feet AGL
Clouds: overcast cloud deck at 2600 feet AGL
Weather: no significant weather observed at this time

METAR text: NZCH 191830Z AUTO 07005KT 9999 OVC026/// 16/15 Q1025 TEMPO BKN008
Conditions at: NZCH (CHRISTCHURCH INT, NZ) observed 1830 UTC 19 March 2019
Temperature: 16.0°C (61°F)
Dewpoint: 15.0°C (59°F) [RH = 94%]
Pressure (altimeter): 30.27 inches Hg (1025.0 mb)
Winds: from the ENE (70 degrees) at 6 MPH (5 knots; 2.6 m/s)
Visibility: 6 or more miles (10+ km)
Ceiling: 2600 feet AGL
Clouds: overcast cloud deck at 2600 feet AGL
Weather: no significant weather observed at this time

METAR text: NZCH 191800Z AUTO 08005KT 9999 OVC026/// 16/15 Q1025 TEMPO BKN008
Conditions at: NZCH (CHRISTCHURCH INT, NZ) observed 1800 UTC 19 March 2019
Temperature: 16.0°C (61°F)
Dewpoint: 15.0°C (59°F) [RH = 94%]
Pressure (altimeter): 30.27 inches Hg (1025.0 mb)
Winds: from the E (80 degrees) at 6 MPH (5 knots; 2.6 m/s)
Visibility: 6 or more miles (10+ km)
Ceiling: 2600 feet AGL
Clouds: overcast cloud deck at 2600 feet AGL
Weather: no significant weather observed at this time

METAR text: NZCH 191730Z AUTO 09005KT 9999 OVC026/// 16/15 Q1025 NOSIG
Conditions at: NZCH (CHRISTCHURCH INT, NZ) observed 1730 UTC 19 March 2019
Temperature: 16.0°C (61°F)
Dewpoint: 15.0°C (59°F) [RH = 94%]
Pressure (altimeter): 30.27 inches Hg (1025.0 mb)
Winds: from the E (90 degrees) at 6 MPH (5 knots; 2.6 m/s)
Visibility: 6 or more miles (10+ km)
Ceiling: 2600 feet AGL
Clouds: overcast cloud deck at 2600 feet AGL
Weather: no significant weather observed at this time

METAR text: NZCH 191700Z AUTO 09006KT 9999 OVC025/// 16/15 Q1025 TEMPO BKN008
Conditions at: NZCH (CHRISTCHURCH INT, NZ) observed 1700 UTC 19 March 2019
Temperature: 16.0°C (61°F)
Dewpoint: 15.0°C (59°F) [RH = 94%]
Pressure (altimeter): 30.27 inches Hg (1025.0 mb)
Winds: from the E (90 degrees) at 7 MPH (6 knots; 3.1 m/s)
Visibility: 6 or more miles (10+ km)
Ceiling: 2500 feet AGL
Clouds: overcast cloud deck at 2500 feet AGL
Weather: no significant weather observed at this time

METAR text: NZCH 191630Z AUTO 08005KT 9999 FEW008/// OVC026/// 16/15 Q1025 TEMPO BKN008
Conditions at: NZCH (CHRISTCHURCH INT, NZ) observed 1630 UTC 19 March 2019
Temperature: 16.0°C (61°F)
Dewpoint: 15.0°C (59°F) [RH = 94%]
Pressure (altimeter): 30.27 inches Hg (1025.0 mb)
Winds: from the E (80 degrees) at 6 MPH (5 knots; 2.6 m/s)
Visibility: 6 or more miles (10+ km)
Ceiling: 2600 feet AGL
Clouds: few clouds at 800 feet AGL
overcast cloud deck at 2600 feet AGL
Weather: no significant weather observed at this time

METAR text: NZCH 191600Z AUTO 08006KT 9999 SCT007/// BKN011/// OVC024/// 16/15 Q1025 BECMG BKN020 TEMPO BKN008
Conditions at: NZCH (CHRISTCHURCH INT, NZ) observed 1600 UTC 19 March 2019
Temperature: 16.0°C (61°F)
Dewpoint: 15.0°C (59°F) [RH = 94%]
Pressure (altimeter): 30.27 inches Hg (1025.0 mb)
Winds: from the E (80 degrees) at 7 MPH (6 knots; 3.1 m/s)
Visibility: 6 or more miles (10+ km)
Ceiling: 1100 feet AGL
Clouds: scattered clouds at 700 feet AGL
broken clouds at 1100 feet AGL
overcast cloud deck at 2400 feet AGL
Weather: no significant weather observed at this time

METAR text: NZCH 191530Z AUTO 08007KT 9999 SCT008/// OVC023/// 16/15 Q1025 TEMPO BKN008
Conditions at: NZCH (CHRISTCHURCH INT, NZ) observed 1530 UTC 19 March 2019
Temperature: 16.0°C (61°F)
Dewpoint: 15.0°C (59°F) [RH = 94%]
Pressure (altimeter): 30.27 inches Hg (1025.0 mb)
Winds: from the E (80 degrees) at 8 MPH (7 knots; 3.6 m/s)
Visibility: 6 or more miles (10+ km)
Ceiling: 2300 feet AGL
Clouds: scattered clouds at 800 feet AGL
overcast cloud deck at 2300 feet AGL
Weather: no significant weather observed at this time

METAR text: NZCH 191500Z AUTO 07006KT 9999 BKN025/// 16/15 Q1025 TEMPO BKN008
Conditions at: NZCH (CHRISTCHURCH INT, NZ) observed 1500 UTC 19 March 2019
Temperature: 16.0°C (61°F)
Dewpoint: 15.0°C (59°F) [RH = 94%]
Pressure (altimeter): 30.27 inches Hg (1025.0 mb)
Winds: from the ENE (70 degrees) at 7 MPH (6 knots; 3.1 m/s)
Visibility: 6 or more miles (10+ km)
Ceiling: 2500 feet AGL
Clouds: broken clouds at 2500 feet AGL
Weather: no significant weather observed at this time

METAR text: NZCH 191430Z AUTO 07005KT 9999 BKN026/// 16/15 Q1025 TEMPO BKN008
Conditions at: NZCH (CHRISTCHURCH INT, NZ) observed 1430 UTC 19 March 2019
Temperature: 16.0°C (61°F)
Dewpoint: 15.0°C (59°F) [RH = 94%]
Pressure (altimeter): 30.27 inches Hg (1025.0 mb)
Winds: from the ENE (70 degrees) at 6 MPH (5 knots; 2.6 m/s)
Visibility: 6 or more miles (10+ km)
Ceiling: 2600 feet AGL
Clouds: broken clouds at 2600 feet AGL
Weather: no significant weather observed at this time

METAR text: NZCH 191400Z AUTO 08006KT 9999 FEW010/// BKN026/// 16/15 Q1025 BECMG BKN014 TEMPO BKN008
Conditions at: NZCH (CHRISTCHURCH INT, NZ) observed 1400 UTC 19 March 2019
Temperature: 16.0°C (61°F)
Dewpoint: 15.0°C (59°F) [RH = 94%]
Pressure (altimeter): 30.27 inches Hg (1025.0 mb)
Winds: from the E (80 degrees) at 7 MPH (6 knots; 3.1 m/s)
Visibility: 6 or more miles (10+ km)
Ceiling: 2600 feet AGL
Clouds: few clouds at 1000 feet AGL
broken clouds at 2600 feet AGL
Weather: no significant weather observed at this time

METAR text: NZCH 191330Z AUTO 08004KT 9999 SCT009/// SCT013/// BKN020/// 15/14 Q1026 BECMG BKN014 TEMPO BKN008
Conditions at: NZCH (CHRISTCHURCH INT, NZ) observed 1330 UTC 19 March 2019
Temperature: 15.0°C (59°F)
Dewpoint: 14.0°C (57°F) [RH = 94%]
Pressure (altimeter): 30.30 inches Hg (1026.0 mb)
Winds: from the E (80 degrees) at 5 MPH (4 knots; 2.1 m/s)
Visibility: 6 or more miles (10+ km)
Ceiling: 2000 feet AGL
Clouds: scattered clouds at 900 feet AGL
scattered clouds at 1300 feet AGL
broken clouds at 2000 feet AGL
Weather: no significant weather observed at this time

METAR text: NZCH 191300Z AUTO 08006KT 9999 FEW009/// BKN019/// 16/15 Q1026 BECMG BKN014 TEMPO BKN008
Conditions at: NZCH (CHRISTCHURCH INT, NZ) observed 1300 UTC 19 March 2019
Temperature: 16.0°C (61°F)
Dewpoint: 15.0°C (59°F) [RH = 94%]
Pressure (altimeter): 30.30 inches Hg (1026.0 mb)
Winds: from the E (80 degrees) at 7 MPH (6 knots; 3.1 m/s)
Visibility: 6 or more miles (10+ km)
Ceiling: 1900 feet AGL
Clouds: few clouds at 900 feet AGL
broken clouds at 1900 feet AGL
Weather: no significant weather observed at this time

METAR text: NZCH 191230Z AUTO 07007KT 9999 BKN008/// BKN020/// 16/15 Q1026 BECMG BKN014 TEMPO BKN008
Conditions at: NZCH (CHRISTCHURCH INT, NZ) observed 1230 UTC 19 March 2019
Temperature: 16.0°C (61°F)
Dewpoint: 15.0°C (59°F) [RH = 94%]
Pressure (altimeter): 30.30 inches Hg (1026.0 mb)
Winds: from the ENE (70 degrees) at 8 MPH (7 knots; 3.6 m/s)
Visibility: 6 or more miles (10+ km)
Ceiling: 800 feet AGL
Clouds: broken clouds at 800 feet AGL
broken clouds at 2000 feet AGL
Weather: no significant weather observed at this time

METAR text: NZCH 191200Z AUTO 07007KT 9999 FEW007/// BKN019/// 16/15 Q1026 BECMG BKN014
Conditions at: NZCH (CHRISTCHURCH INT, NZ) observed 1200 UTC 19 March 2019
Temperature: 16.0°C (61°F)
Dewpoint: 15.0°C (59°F) [RH = 94%]
Pressure (altimeter): 30.30 inches Hg (1026.0 mb)
Winds: from the ENE (70 degrees) at 8 MPH (7 knots; 3.6 m/s)
Visibility: 6 or more miles (10+ km)
Ceiling: 1900 feet AGL
Clouds: few clouds at 700 feet AGL
broken clouds at 1900 feet AGL
Weather: no significant weather observed at this time

METAR text: NZCH 191130Z AUTO 07006KT 9999 BKN019/// 16/15 Q1026 BECMG BKN014
Conditions at: NZCH (CHRISTCHURCH INT, NZ) observed 1130 UTC 19 March 2019
Temperature: 16.0°C (61°F)
Dewpoint: 15.0°C (59°F) [RH = 94%]
Pressure (altimeter): 30.30 inches Hg (1026.0 mb)
Winds: from the ENE (70 degrees) at 7 MPH (6 knots; 3.1 m/s)
Visibility: 6 or more miles (10+ km)
Ceiling: 1900 feet AGL
Clouds: broken clouds at 1900 feet AGL
Weather: no significant weather observed at this time

METAR text: NZCH 191100Z AUTO 08006KT 9999 FEW011/// BKN019/// 16/15 Q1026 BECMG BKN014
Conditions at: NZCH (CHRISTCHURCH INT, NZ) observed 1100 UTC 19 March 2019
Temperature: 16.0°C (61°F)
Dewpoint: 15.0°C (59°F) [RH = 94%]
Pressure (altimeter): 30.30 inches Hg (1026.0 mb)
Winds: from the E (80 degrees) at 7 MPH (6 knots; 3.1 m/s)
Visibility: 6 or more miles (10+ km)
Ceiling: 1900 feet AGL
Clouds: few clouds at 1100 feet AGL
broken clouds at 1900 feet AGL
Weather: no significant weather observed at this time

METAR text: NZCH 191030Z AUTO 07007KT 9999 SCT017/// 16/14 Q1026 BECMG BKN014
Conditions at: NZCH (CHRISTCHURCH INT, NZ) observed 1030 UTC 19 March 2019
Temperature: 16.0°C (61°F)
Dewpoint: 14.0°C (57°F) [RH = 88%]
Pressure (altimeter): 30.30 inches Hg (1026.0 mb)
Winds: from the ENE (70 degrees) at 8 MPH (7 knots; 3.6 m/s)
Visibility: 6 or more miles (10+ km)
Ceiling: at least 12,000 feet AGL
Clouds: scattered clouds at 1700 feet AGL
Weather: no significant weather observed at this time

METAR text: NZCH 191000Z AUTO 07006KT 9999 BKN013/// 16/14 Q1026 NOSIG
Conditions at: NZCH (CHRISTCHURCH INT, NZ) observed 1000 UTC 19 March 2019
Temperature: 16.0°C (61°F)
Dewpoint: 14.0°C (57°F) [RH = 88%]
Pressure (altimeter): 30.30 inches Hg (1026.0 mb)
Winds: from the ENE (70 degrees) at 7 MPH (6 knots; 3.1 m/s)
Visibility: 6 or more miles (10+ km)
Ceiling: 1300 feet AGL
Clouds: broken clouds at 1300 feet AGL
Weather: no significant weather observed at this time

METAR text: NZCH 190930Z AUTO 07008KT 9999 BKN014/// 16/14 Q1026 NOSIG
Conditions at: NZCH (CHRISTCHURCH INT, NZ) observed 0930 UTC 19 March 2019
Temperature: 16.0°C (61°F)
Dewpoint: 14.0°C (57°F) [RH = 88%]
Pressure (altimeter): 30.30 inches Hg (1026.0 mb)
Winds: from the ENE (70 degrees) at 9 MPH (8 knots; 4.1 m/s)
Visibility: 6 or more miles (10+ km)
Ceiling: 1400 feet AGL
Clouds: broken clouds at 1400 feet AGL
Weather: no significant weather observed at this time

METAR text: NZCH 190900Z AUTO 07008KT 9999 OVC016/// 16/14 Q1026 NOSIG
Conditions at: NZCH (CHRISTCHURCH INT, NZ) observed 0900 UTC 19 March 2019
Temperature: 16.0°C (61°F)
Dewpoint: 14.0°C (57°F) [RH = 88%]
Pressure (altimeter): 30.30 inches Hg (1026.0 mb)
Winds: from the ENE (70 degrees) at 9 MPH (8 knots; 4.1 m/s)
Visibility: 6 or more miles (10+ km)
Ceiling: 1600 feet AGL
Clouds: overcast cloud deck at 1600 feet AGL
Weather: no significant weather observed at this time

METAR text: NZCH 190830Z AUTO 06008KT 9999 OVC016/// 16/14 Q1026 NOSIG
Conditions at: NZCH (CHRISTCHURCH INT, NZ) observed 0830 UTC 19 March 2019
Temperature: 16.0°C (61°F)
Dewpoint: 14.0°C (57°F) [RH = 88%]
Pressure (altimeter): 30.30 inches Hg (1026.0 mb)
Winds: from the ENE (60 degrees) at 9 MPH (8 knots; 4.1 m/s)
Visibility: 6 or more miles (10+ km)
Ceiling: 1600 feet AGL
Clouds: overcast cloud deck at 1600 feet AGL
Weather: no significant weather observed at this time

METAR text: NZCH 190800Z AUTO 06009KT 9999 OVC015/// 16/14 Q1025 BECMG BKN018 TEMPO BKN014
Conditions at: NZCH (CHRISTCHURCH INT, NZ) observed 0800 UTC 19 March 2019
Temperature: 16.0°C (61°F)
Dewpoint: 14.0°C (57°F) [RH = 88%]
Pressure (altimeter): 30.27 inches Hg (1025.0 mb)
Winds: from the ENE (60 degrees) at 10 MPH (9 knots; 4.6 m/s)
Visibility: 6 or more miles (10+ km)
Ceiling: 1500 feet AGL
Clouds: overcast cloud deck at 1500 feet AGL
Weather: no significant weather observed at this time

METAR text: NZCH 190730Z AUTO 07010KT 9999 FEW010/// OVC016/// 16/14 Q1025 TEMPO BKN014
Conditions at: NZCH (CHRISTCHURCH INT, NZ) observed 0730 UTC 19 March 2019
Temperature: 16.0°C (61°F)
Dewpoint: 14.0°C (57°F) [RH = 88%]
Pressure (altimeter): 30.27 inches Hg (1025.0 mb)
Winds: from the ENE (70 degrees) at 12 MPH (10 knots; 5.1 m/s)
Visibility: 6 or more miles (10+ km)
Ceiling: 1600 feet AGL
Clouds: few clouds at 1000 feet AGL
overcast cloud deck at 1600 feet AGL
Weather: no significant weather observed at this time

METAR text: NZCH 190700Z AUTO 07010KT 9999 BKN019/// OVC024/// 17/14 Q1025 TEMPO BKN014
Conditions at: NZCH (CHRISTCHURCH INT, NZ) observed 0700 UTC 19 March 2019
Temperature: 17.0°C (63°F)
Dewpoint: 14.0°C (57°F) [RH = 82%]
Pressure (altimeter): 30.27 inches Hg (1025.0 mb)
Winds: from the ENE (70 degrees) at 12 MPH (10 knots; 5.1 m/s)
Visibility: 6 or more miles (10+ km)
Ceiling: 1900 feet AGL
Clouds: broken clouds at 1900 feet AGL
overcast cloud deck at 2400 feet AGL
Weather: no significant weather observed at this time

METAR text: NZCH 190630Z AUTO 07012KT 9999 BKN017/// BKN024/// 17/14 Q1025 NOSIG
Conditions at: NZCH (CHRISTCHURCH INT, NZ) observed 0630 UTC 19 March 2019
Temperature: 17.0°C (63°F)
Dewpoint: 14.0°C (57°F) [RH = 82%]
Pressure (altimeter): 30.27 inches Hg (1025.0 mb)
Winds: from the ENE (70 degrees) at 14 MPH (12 knots; 6.2 m/s)
Visibility: 6 or more miles (10+ km)
Ceiling: 1700 feet AGL
Clouds: broken clouds at 1700 feet AGL
broken clouds at 2400 feet AGL
Weather: no significant weather observed at this time

METAR text: NZCH 190600Z AUTO 07011KT 9999 BKN016/// BKN021/// 17/14 Q1025 NOSIG
Conditions at: NZCH (CHRISTCHURCH INT, NZ) observed 0600 UTC 19 March 2019
Temperature: 17.0°C (63°F)
Dewpoint: 14.0°C (57°F) [RH = 82%]
Pressure (altimeter): 30.27 inches Hg (1025.0 mb)
Winds: from the ENE (70 degrees) at 13 MPH (11 knots; 5.7 m/s)
Visibility: 6 or more miles (10+ km)
Ceiling: 1600 feet AGL
Clouds: broken clouds at 1600 feet AGL
broken clouds at 2100 feet AGL
Weather: no significant weather observed at this time

METAR text: NZCH 190530Z AUTO 07011KT 9999 BKN014/// BKN023/// 17/14 Q1024 NOSIG
Conditions at: NZCH (CHRISTCHURCH INT, NZ) observed 0530 UTC 19 March 2019
Temperature: 17.0°C (63°F)
Dewpoint: 14.0°C (57°F) [RH = 82%]
Pressure (altimeter): 30.24 inches Hg (1024.0 mb)
Winds: from the ENE (70 degrees) at 13 MPH (11 knots; 5.7 m/s)
Visibility: 6 or more miles (10+ km)
Ceiling: 1400 feet AGL
Clouds: broken clouds at 1400 feet AGL
broken clouds at 2300 feet AGL
Weather: no significant weather observed at this time

METAR text: NZCH 190500Z AUTO 06013KT 9999 BKN018/// BKN025/// 18/14 Q1024 NOSIG
Conditions at: NZCH (CHRISTCHURCH INT, NZ) observed 0500 UTC 19 March 2019
Temperature: 18.0°C (64°F)
Dewpoint: 14.0°C (57°F) [RH = 77%]
Pressure (altimeter): 30.24 inches Hg (1024.0 mb)
Winds: from the ENE (60 degrees) at 15 MPH (13 knots; 6.7 m/s)
Visibility: 6 or more miles (10+ km)
Ceiling: 1800 feet AGL
Clouds: broken clouds at 1800 feet AGL
broken clouds at 2500 feet AGL
Weather: no significant weather observed at this time

METAR text: NZCH 190430Z AUTO 08011KT 050V110 9999 SCT021/// 19/14 Q1024 NOSIG
Conditions at: NZCH (CHRISTCHURCH INT, NZ) observed 0430 UTC 19 March 2019
Temperature: 19.0°C (66°F)
Dewpoint: 14.0°C (57°F) [RH = 73%]
Pressure (altimeter): 30.24 inches Hg (1024.0 mb)
Winds: from the E (80 degrees) at 13 MPH (11 knots; 5.7 m/s)
Visibility: 6 or more miles (10+ km)
Ceiling: at least 12,000 feet AGL
Clouds: scattered clouds at 2100 feet AGL
Weather: no significant weather observed at this time

METAR text: NZCH 190400Z AUTO 08012KT 9999 FEW021/// 20/14 Q1024 NOSIG
Conditions at: NZCH (CHRISTCHURCH INT, NZ) observed 0400 UTC 19 March 2019
Temperature: 20.0°C (68°F)
Dewpoint: 14.0°C (57°F) [RH = 68%]
Pressure (altimeter): 30.24 inches Hg (1024.0 mb)
Winds: from the E (80 degrees) at 14 MPH (12 knots; 6.2 m/s)
Visibility: 6 or more miles (10+ km)
Ceiling: at least 12,000 feet AGL
Clouds: few clouds at 2100 feet AGL
Weather: no significant weather observed at this time

METAR text: NZCH 190330Z AUTO 08011KT 050V120 9999 FEW026/// 20/14 Q1024 NOSIG
Conditions at: NZCH (CHRISTCHURCH INT, NZ) observed 0330 UTC 19 March 2019
Temperature: 20.0°C (68°F)
Dewpoint: 14.0°C (57°F) [RH = 68%]
Pressure (altimeter): 30.24 inches Hg (1024.0 mb)
Winds: from the E (80 degrees) at 13 MPH (11 knots; 5.7 m/s)
Visibility: 6 or more miles (10+ km)
Ceiling: at least 12,000 feet AGL
Clouds: few clouds at 2600 feet AGL
Weather: no significant weather observed at this time

METAR text: NZCH 190300Z AUTO 06008KT 010V100 9999 NCD 20/12 Q1025 NOSIG
Conditions at: NZCH (CHRISTCHURCH INT, NZ) observed 0300 UTC 19 March 2019
Temperature: 20.0°C (68°F)
Dewpoint: 12.0°C (54°F) [RH = 60%]
Pressure (altimeter): 30.27 inches Hg (1025.0 mb)
Winds: from the ENE (60 degrees) at 9 MPH (8 knots; 4.1 m/s)
Visibility: 6 or more miles (10+ km)
Ceiling: at least 12,000 feet AGL
Clouds: sky clear below 12,000 feet AGL
Weather: no significant weather observed at this time

METAR text: NZCH 190230Z AUTO 06008KT 030V100 9999 FEW030/// 21/12 Q1025 NOSIG
Conditions at: NZCH (CHRISTCHURCH INT, NZ) observed 0230 UTC 19 March 2019
Temperature: 21.0°C (70°F)
Dewpoint: 12.0°C (54°F) [RH = 56%]
Pressure (altimeter): 30.27 inches Hg (1025.0 mb)
Winds: from the ENE (60 degrees) at 9 MPH (8 knots; 4.1 m/s)
Visibility: 6 or more miles (10+ km)
Ceiling: at least 12,000 feet AGL
Clouds: few clouds at 3000 feet AGL
Weather: no significant weather observed at this time

METAR text: NZCH 190200Z AUTO 07007KT 9999 BKN030/// 21/13 Q1025 NOSIG
Conditions at: NZCH (CHRISTCHURCH INT, NZ) observed 0200 UTC 19 March 2019
Temperature: 21.0°C (70°F)
Dewpoint: 13.0°C (55°F) [RH = 60%]
Pressure (altimeter): 30.27 inches Hg (1025.0 mb)
Winds: from the ENE (70 degrees) at 8 MPH (7 knots; 3.6 m/s)
Visibility: 6 or more miles (10+ km)
Ceiling: 3000 feet AGL
Clouds: broken clouds at 3000 feet AGL
Weather: no significant weather observed at this time

METAR text: NZCH 190130Z AUTO 06006KT 360V100 9999 FEW027/// BKN033/// 19/13 Q1026 NOSIG
Conditions at: NZCH (CHRISTCHURCH INT, NZ) observed 0130 UTC 19 March 2019
Temperature: 19.0°C (66°F)
Dewpoint: 13.0°C (55°F) [RH = 68%]
Pressure (altimeter): 30.30 inches Hg (1026.0 mb)
Winds: from the ENE (60 degrees) at 7 MPH (6 knots; 3.1 m/s)
Visibility: 6 or more miles (10+ km)
Ceiling: 3300 feet AGL
Clouds: few clouds at 2700 feet AGL
broken clouds at 3300 feet AGL
Weather: no significant weather observed at this time

METAR text: NZCH 190100Z AUTO 04005KT 320V080 9999 OVC029/// 20/13 Q1026 NOSIG
Conditions at: NZCH (CHRISTCHURCH INT, NZ) observed 0100 UTC 19 March 2019
Temperature: 20.0°C (68°F)
Dewpoint: 13.0°C (55°F) [RH = 64%]
Pressure (altimeter): 30.30 inches Hg (1026.0 mb)
Winds: from the NE (40 degrees) at 6 MPH (5 knots; 2.6 m/s)
Visibility: 6 or more miles (10+ km)
Ceiling: 2900 feet AGL
Clouds: overcast cloud deck at 2900 feet AGL
Weather: no significant weather observed at this time

METAR text: NZCH 190030Z AUTO 04003KT 9999 BKN032/// 20/12 Q1026 NOSIG
Conditions at: NZCH (CHRISTCHURCH INT, NZ) observed 0030 UTC 19 March 2019
Temperature: 20.0°C (68°F)
Dewpoint: 12.0°C (54°F) [RH = 60%]
Pressure (altimeter): 30.30 inches Hg (1026.0 mb)
Winds: from the NE (40 degrees) at 3 MPH (3 knots; 1.5 m/s)
Visibility: 6 or more miles (10+ km)
Ceiling: 3200 feet AGL
Clouds: broken clouds at 3200 feet AGL
Weather: no significant weather observed at this time

METAR text: NZCH 190000Z AUTO 03004KT 340V070 9999 SCT026/// OVC033/// 19/13 Q1026 NOSIG
Conditions at: NZCH (CHRISTCHURCH INT, NZ) observed 0000 UTC 19 March 2019
Temperature: 19.0°C (66°F)
Dewpoint: 13.0°C (55°F) [RH = 68%]
Pressure (altimeter): 30.30 inches Hg (1026.0 mb)
Winds: from the NNE (30 degrees) at 5 MPH (4 knots; 2.1 m/s)
Visibility: 6 or more miles (10+ km)
Ceiling: 3300 feet AGL
Clouds: scattered clouds at 2600 feet AGL
overcast cloud deck at 3300 feet AGL
Weather: no significant weather observed at this time

METAR text: NZCH 182330Z AUTO 04006KT 010V070 9999 BKN028/// OVC033/// 19/13 Q1026 NOSIG
Conditions at: NZCH (CHRISTCHURCH INT, NZ) observed 2330 UTC 18 March 2019
Temperature: 19.0°C (66°F)
Dewpoint: 13.0°C (55°F) [RH = 68%]
Pressure (altimeter): 30.30 inches Hg (1026.0 mb)
Winds: from the NE (40 degrees) at 7 MPH (6 knots; 3.1 m/s)
Visibility: 6 or more miles (10+ km)
Ceiling: 2800 feet AGL
Clouds: broken clouds at 2800 feet AGL
overcast cloud deck at 3300 feet AGL
Weather: no significant weather observed at this time

METAR text: NZCH 182300Z AUTO 02003KT 9999 BKN034/// 19/12 Q1027 NOSIG
Conditions at: NZCH (CHRISTCHURCH INT, NZ) observed 2300 UTC 18 March 2019
Temperature: 19.0°C (66°F)
Dewpoint: 12.0°C (54°F) [RH = 64%]
Pressure (altimeter): 30.32 inches Hg (1027.0 mb)
Winds: from the NNE (20 degrees) at 3 MPH (3 knots; 1.5 m/s)
Visibility: 6 or more miles (10+ km)
Ceiling: 3400 feet AGL
Clouds: broken clouds at 3400 feet AGL
Weather: no significant weather observed at this time

METAR text: NZCH 182230Z AUTO 04005KT 330V090 9999 FEW017/// BKN033/// 19/14 Q1027 NOSIG
Conditions at: NZCH (CHRISTCHURCH INT, NZ) observed 2230 UTC 18 March 2019
Temperature: 19.0°C (66°F)
Dewpoint: 14.0°C (57°F) [RH = 73%]
Pressure (altimeter): 30.32 inches Hg (1027.0 mb)
Winds: from the NE (40 degrees) at 6 MPH (5 knots; 2.6 m/s)
Visibility: 6 or more miles (10+ km)
Ceiling: 3300 feet AGL
Clouds: few clouds at 1700 feet AGL
broken clouds at 3300 feet AGL
Weather: no significant weather observed at this time

METAR text: NZCH 182200Z AUTO 01004KT 340V050 9999 FEW016/// OVC033/// 18/14 Q1027 NOSIG
Conditions at: NZCH (CHRISTCHURCH INT, NZ) observed 2200 UTC 18 March 2019
Temperature: 18.0°C (64°F)
Dewpoint: 14.0°C (57°F) [RH = 77%]
Pressure (altimeter): 30.32 inches Hg (1027.0 mb)
Winds: from the N (10 degrees) at 5 MPH (4 knots; 2.1 m/s)
Visibility: 6 or more miles (10+ km)
Ceiling: 3300 feet AGL
Clouds: few clouds at 1600 feet AGL
overcast cloud deck at 3300 feet AGL
Weather: no significant weather observed at this time

METAR text: NZCH 182130Z AUTO 02002KT 9999 OVC033/// 17/14 Q1027 NOSIG
Conditions at: NZCH (CHRISTCHURCH INT, NZ) observed 2130 UTC 18 March 2019
Temperature: 17.0°C (63°F)
Dewpoint: 14.0°C (57°F) [RH = 82%]
Pressure (altimeter): 30.32 inches Hg (1027.0 mb)
Winds: from the NNE (20 degrees) at 2 MPH (2 knots; 1.0 m/s)
Visibility: 6 or more miles (10+ km)
Ceiling: 3300 feet AGL
Clouds: overcast cloud deck at 3300 feet AGL
Weather: no significant weather observed at this time

METAR text: NZCH 182100Z AUTO 00000KT 9999 OVC032/// 17/14 Q1027 NOSIG
Conditions at: NZCH (CHRISTCHURCH INT, NZ) observed 2100 UTC 18 March 2019
Temperature: 17.0°C (63°F)
Dewpoint: 14.0°C (57°F) [RH = 82%]
Pressure (altimeter): 30.32 inches Hg (1027.0 mb)
Winds: calm
Visibility: 6 or more miles (10+ km)
Ceiling: 3200 feet AGL
Clouds: overcast cloud deck at 3200 feet AGL
Weather: no significant weather observed at this time

METAR text: NZCH 182030Z AUTO 24002KT 9999 OVC032/// 16/14 Q1027 NOSIG
Conditions at: NZCH (CHRISTCHURCH INT, NZ) observed 2030 UTC 18 March 2019
Temperature: 16.0°C (61°F)
Dewpoint: 14.0°C (57°F) [RH = 88%]
Pressure (altimeter): 30.32 inches Hg (1027.0 mb)
Winds: from the WSW (240 degrees) at 2 MPH (2 knots; 1.0 m/s)
Visibility: 6 or more miles (10+ km)
Ceiling: 3200 feet AGL
Clouds: overcast cloud deck at 3200 feet AGL
Weather: no significant weather observed at this time

METAR text: NZCH 182000Z AUTO 24002KT 9999 OVC030/// 16/14 Q1027 NOSIG
Conditions at: NZCH (CHRISTCHURCH INT, NZ) observed 2000 UTC 18 March 2019
Temperature: 16.0°C (61°F)
Dewpoint: 14.0°C (57°F) [RH = 88%]
Pressure (altimeter): 30.32 inches Hg (1027.0 mb)
Winds: from the WSW (240 degrees) at 2 MPH (2 knots; 1.0 m/s)
Visibility: 6 or more miles (10+ km)
Ceiling: 3000 feet AGL
Clouds: overcast cloud deck at 3000 feet AGL
Weather: no significant weather observed at this time

METAR text: NZCH 181930Z AUTO 22001KT 9999 OVC030/// 15/14 Q1026
Conditions at: NZCH (CHRISTCHURCH INT, NZ) observed 1930 UTC 18 March 2019
Temperature: 15.0°C (59°F)
Dewpoint: 14.0°C (57°F) [RH = 94%]
Pressure (altimeter): 30.30 inches Hg (1026.0 mb)
Winds: from the SW (220 degrees) at 1 MPH (1 knots; 0.5 m/s)
Visibility: 6 or more miles (10+ km)
Ceiling: 3000 feet AGL
Clouds: overcast cloud deck at 3000 feet AGL
Weather: no significant weather observed at this time

METAR text: NZCH 181900Z AUTO 23003KT 9999 OVC029/// 15/14 Q1026 NOSIG
Conditions at: NZCH (CHRISTCHURCH INT, NZ) observed 1900 UTC 18 March 2019
Temperature: 15.0°C (59°F)
Dewpoint: 14.0°C (57°F) [RH = 94%]
Pressure (altimeter): 30.30 inches Hg (1026.0 mb)
Winds: from the SW (230 degrees) at 3 MPH (3 knots; 1.5 m/s)
Visibility: 6 or more miles (10+ km)
Ceiling: 2900 feet AGL
Clouds: overcast cloud deck at 2900 feet AGL
Weather: no significant weather observed at this time

Forecast for: COR
Text: TAF COR NZCH 200538Z 2006/2106 06015KT 9999 SCT015
Forecast period: 0600 UTC 20 March 2019 to 0600 UTC 21 March 2019
Forecast type: FROM: standard forecast or significant change
Winds: from the ENE (60 degrees) at 17 MPH (15 knots; 7.7 m/s)
Visibility: 6 or more miles 10+ km)
Ceiling: at least 12,000 feet AGL
Clouds: scattered clouds at 1500 feet AGL
Weather: no significant weather forecast for this period
Text: BECMG 2006/2008 06005KT BKN014
Forecast period: 0600 to 2100 UTC 20 March 2019
Forecast type: BECOMING: Conditions expected to become as follows by 0800 UTC 20 March 2019
Winds: from the ENE (60 degrees) at 6 MPH (5 knots; 2.6 m/s)
Visibility: 6 or more miles 10+ km)
Ceiling: 1400 feet AGL
Clouds: broken clouds at 1400 feet AGL
Weather: no significant weather forecast for this period
Text: PROB40 2010/2020 BKN008
Forecast period: 1000 to 2000 UTC 20 March 2019
Forecast type: PROBABLE: 40 percent likelihood of the following during this time
Visibility: missing
Ceiling: 800 feet AGL
Clouds: broken clouds at 800 feet AGL
Weather: no significant weather forecast for this period
Text: BECMG 2021/2023 06015G25KT SCT020
Forecast period: 2100 UTC 20 March 2019 to 0600 UTC 21 March 2019
Forecast type: BECOMING: Conditions expected to become as follows by 2300 UTC 20 March 2019
Winds: from the ENE (60 degrees) at 17 MPH (15 knots; 7.7 m/s)
gusting to 29 MPH (25 knots; 12.9 m/s)
Visibility: 6 or more miles 10+ km)
Ceiling: at least 12,000 feet AGL
Clouds: scattered clouds at 2000 feet AGL
Weather: no significant weather forecast for this period